createdAt,value
2023-03-02T00:04:23.162Z,0.1
2023-03-02T00:09:22.918Z,0.2
2023-03-02T00:14:20.195Z,0.2
2023-03-02T00:19:19.586Z,0.1
2023-03-02T00:24:20.024Z,0.2
2023-03-02T00:29:17.014Z,0.2
2023-03-02T00:34:16.959Z,0.1
2023-03-02T00:39:16.101Z,0.1
2023-03-02T00:44:16.032Z,0.1
2023-03-02T00:49:15.452Z,0.1
2023-03-02T00:54:15.271Z,0.1
2023-03-02T00:59:03.111Z,0.1
2023-03-02T01:04:03.144Z,0.1
2023-03-02T01:09:04.683Z,0.2
2023-03-02T01:14:00.292Z,0.1
2023-03-02T01:19:00.254Z,0.2
2023-03-02T01:23:59.497Z,0.1
2023-03-02T01:28:59.624Z,0.1
2023-03-02T01:33:56.928Z,0.1
2023-03-02T01:38:56.933Z,0.1
2023-03-02T01:43:56.096Z,0.1
2023-03-02T01:48:55.907Z,0.2
2023-03-02T01:53:57.354Z,0.1
2023-03-02T01:58:54.158Z,0.1
2023-03-02T02:03:54.086Z,0.2
2023-03-02T02:08:55.046Z,0.2
2023-03-02T02:13:52.476Z,0.2
2023-03-02T02:18:52.449Z,0.1
2023-03-02T02:23:50.591Z,0.2
2023-03-02T02:28:49.998Z,0.1
2023-03-02T02:33:49.980Z,0.1
2023-03-02T02:38:49.230Z,0.2
2023-03-02T02:43:49.244Z,0.2
2023-03-02T02:48:48.226Z,0.1
2023-03-02T02:53:49.020Z,0.2
2023-03-02T02:58:45.172Z,0.2
2023-03-02T03:03:45.057Z,0.1
2023-03-02T03:08:44.732Z,0.2
2023-03-02T03:13:44.388Z,0.2
2023-03-02T03:18:42.306Z,0.2
2023-03-02T03:23:42.076Z,0.2
2023-03-02T03:28:40.800Z,0.1
2023-03-02T03:33:41.606Z,0.2
2023-03-02T03:38:48.169Z,0.2
2023-03-02T03:43:47.847Z,0.2
2023-03-02T03:48:48.228Z,0.2
2023-03-02T03:53:46.114Z,0.2
2023-03-02T03:58:46.282Z,0.2
2023-03-02T04:00:12.546Z,0.2
2023-03-02T04:05:08.762Z,0.2
2023-03-02T04:10:05.990Z,0.1
2023-03-02T04:15:05.400Z,0.2
2023-03-02T04:20:04.585Z,0.2
2023-03-02T04:25:04.513Z,0.2
2023-03-02T04:30:02.389Z,0.1
2023-03-02T04:35:01.732Z,0.2
2023-03-02T04:40:01.040Z,0.1
2023-03-02T04:45:00.407Z,0.2
2023-03-02T04:50:00.036Z,0.2
2023-03-02T04:54:59.326Z,0.2
2023-03-02T04:59:19.690Z,0.2
2023-03-02T05:04:19.505Z,0.2
2023-03-02T05:09:17.573Z,0.2
2023-03-02T05:14:17.248Z,0.2
2023-03-02T05:19:16.399Z,0.2
2023-03-02T05:24:16.566Z,0.2
2023-03-02T05:29:15.665Z,0.2
2023-03-02T05:34:15.654Z,0.2
2023-03-02T05:39:15.535Z,0.2
2023-03-02T05:44:15.421Z,0.3
2023-03-02T05:49:16.790Z,0.5
2023-03-02T05:54:13.404Z,1
2023-03-02T05:58:59.764Z,1.9
2023-03-02T06:03:59.535Z,3.2
2023-03-02T06:08:59.141Z,3.7
2023-03-02T06:13:56.565Z,5.5
2023-03-02T06:18:56.297Z,7.5
2023-03-02T06:23:56.291Z,9.7
2023-03-02T06:28:56.039Z,11.6
2023-03-02T06:34:00.751Z,16.2
2023-03-02T06:38:54.374Z,22
2023-03-02T06:43:54.534Z,35.8
2023-03-02T06:48:53.101Z,43.5
2023-03-02T06:53:53.086Z,49.5
2023-03-02T06:58:52.318Z,63.1
2023-03-02T07:03:53.068Z,77.8
2023-03-02T07:08:50.115Z,90.5
2023-03-02T07:13:50.253Z,102.6
2023-03-02T07:18:49.633Z,110
2023-03-02T07:23:49.671Z,120.1
2023-03-02T07:28:49.249Z,126.3
2023-03-02T07:33:49.277Z,136.3
2023-03-02T07:38:49.508Z,138.7
2023-03-02T07:43:49.256Z,154.3
2023-03-02T07:48:50.545Z,158.2
2023-03-02T07:53:47.185Z,164.7
2023-03-02T07:58:47.578Z,171.5
2023-03-02T08:03:47.089Z,185.1
2023-03-02T08:08:47.634Z,196.5
2023-03-02T08:13:44.846Z,219.5
2023-03-02T08:18:45.166Z,227.6
2023-03-02T08:23:44.683Z,213
2023-03-02T08:33:42.587Z,242.6
2023-03-02T08:38:42.388Z,203.6
2023-03-02T08:43:41.712Z,155.3
2023-03-02T08:48:41.433Z,187.3
2023-03-02T08:53:48.823Z,210
2023-03-02T08:58:48.368Z,168.6
2023-03-02T09:03:48.687Z,159.2
2023-03-02T09:08:47.062Z,163.6
2023-03-02T09:13:47.429Z,204.6
2023-03-02T09:18:47.643Z,178
2023-03-02T09:23:48.623Z,202.3
2023-03-02T09:28:45.572Z,192
2023-03-02T09:33:46.012Z,230.8
2023-03-02T09:38:46.144Z,284.3
2023-03-02T09:43:43.474Z,203.2
2023-03-02T09:48:32.581Z,169.8
2023-03-02T09:53:32.334Z,245.8
2023-03-02T09:58:33.854Z,148.7
2023-03-02T10:03:30.265Z,229.8
2023-03-02T10:08:29.812Z,167.7
2023-03-02T10:13:29.716Z,174.6
2023-03-02T10:18:29.262Z,314.4
2023-03-02T10:23:28.734Z,173.8
2023-03-02T10:28:29.188Z,470.8
2023-03-02T10:33:28.930Z,452.1
2023-03-02T10:38:30.166Z,452.8
2023-03-02T10:43:26.706Z,488.8
2023-03-02T10:48:27.218Z,482.7
2023-03-02T10:53:26.932Z,498
2023-03-02T10:58:27.749Z,511.9
2023-03-02T10:59:49.589Z,512.5
2023-03-02T11:04:50.490Z,495.2
2023-03-02T11:09:48.745Z,457
2023-03-02T11:14:48.622Z,475.3
2023-03-02T11:19:47.919Z,484.5
2023-03-02T11:24:47.771Z,489.3
2023-03-02T11:29:47.982Z,488.5
2023-03-02T11:34:47.857Z,497.6
2023-03-02T11:39:57.176Z,509.4
2023-03-02T11:44:46.519Z,504.3
2023-03-02T11:49:46.171Z,488.1
2023-03-02T11:54:45.452Z,500.2
2023-03-02T11:59:12.900Z,486.6
2023-03-02T12:04:13.160Z,494
2023-03-02T12:09:11.795Z,498.7
2023-03-02T12:14:12.784Z,483
2023-03-02T12:19:13.785Z,485
2023-03-02T12:24:10.201Z,488
2023-03-02T12:29:10.140Z,478.6
2023-03-02T12:34:09.611Z,488.6
2023-03-02T12:39:09.720Z,479.8
2023-03-02T12:44:07.510Z,476.8
2023-03-02T12:49:10.665Z,470
2023-03-02T12:54:06.717Z,470.6
2023-03-02T12:58:52.588Z,458.8
2023-03-02T13:03:52.862Z,445.2
2023-03-02T13:08:52.293Z,450.2
2023-03-02T13:13:52.167Z,440.8
2023-03-02T13:18:51.503Z,431.1
2023-03-02T13:23:49.765Z,414.8
2023-03-02T13:28:49.080Z,418.7
2023-03-02T13:33:48.731Z,414.7
2023-03-02T13:38:47.951Z,413.5
2023-03-02T13:43:47.729Z,409
2023-03-02T13:48:47.291Z,397.9
2023-03-02T13:53:46.656Z,385.4
2023-03-02T13:58:46.133Z,375.4
2023-03-02T14:03:47.383Z,368.4
2023-03-02T14:08:43.701Z,349.2
2023-03-02T14:13:44.034Z,338
2023-03-02T14:18:43.332Z,335
2023-03-02T14:23:43.532Z,326.6
2023-03-02T14:28:40.438Z,317.5
2023-03-02T14:33:40.789Z,304.6
2023-03-02T14:38:49.946Z,291.2
2023-03-02T14:43:39.768Z,283.4
2023-03-02T14:48:47.947Z,271
2023-03-02T14:53:47.330Z,262.1
2023-03-02T14:58:47.616Z,248.8
2023-03-02T15:05:08.993Z,238.9
2023-03-02T15:10:08.389Z,225.1
2023-03-02T15:15:08.266Z,211.2
2023-03-02T15:20:05.727Z,202.3
2023-03-02T15:25:05.804Z,162.3
2023-03-02T15:30:04.712Z,126.2
2023-03-02T15:35:04.157Z,146.9
2023-03-02T15:40:04.301Z,154.5
2023-03-02T15:45:03.643Z,122
2023-03-02T15:50:03.443Z,135.3
2023-03-02T15:55:02.948Z,123.5
2023-03-02T15:59:24.747Z,113.7
2023-03-02T16:04:21.429Z,104.1
2023-03-02T16:09:21.637Z,91.9
2023-03-02T16:14:20.689Z,80.4
2023-03-02T16:19:21.031Z,60.7
2023-03-02T16:24:17.562Z,58.7
2023-03-02T16:29:17.083Z,32.9
2023-03-02T16:34:16.406Z,27.7
2023-03-02T16:39:16.815Z,23
2023-03-02T16:44:13.117Z,18.9
2023-03-02T16:49:13.269Z,15.2
2023-03-02T16:54:13.425Z,11.7
2023-03-02T16:59:09.283Z,8.6
2023-03-02T17:04:09.336Z,6
2023-03-02T17:09:08.800Z,4
2023-03-02T17:14:07.611Z,3.3
2023-03-02T17:19:08.473Z,2
2023-03-02T17:24:05.593Z,1.1
2023-03-02T17:29:04.683Z,0.6
2023-03-02T17:34:04.426Z,0.3
2023-03-02T17:39:04.296Z,0.2
2023-03-02T17:44:01.480Z,0.2
2023-03-02T17:49:01.901Z,0.2
2023-03-02T17:54:00.505Z,0.2
2023-03-02T17:58:47.838Z,0.2
2023-03-02T18:03:47.839Z,0.2
2023-03-02T18:08:46.754Z,0.2
2023-03-02T18:13:46.993Z,0.2
2023-03-02T18:18:46.266Z,0.2
2023-03-02T18:23:44.059Z,0.2
2023-03-02T18:28:43.901Z,0.2
2023-03-02T18:33:43.368Z,0.2
2023-03-02T18:38:43.144Z,0.2
2023-03-02T18:43:43.457Z,0.2
2023-03-02T18:48:42.709Z,0.2
2023-03-02T18:53:41.333Z,0.2
2023-03-02T18:58:41.042Z,0.2
2023-03-02T19:03:41.973Z,0.2
2023-03-02T19:08:48.583Z,0.2
2023-03-02T19:13:48.035Z,0.2
2023-03-02T19:18:48.353Z,0.2
2023-03-02T19:23:48.215Z,0.2
2023-03-02T19:28:45.704Z,0.2
2023-03-02T19:33:46.157Z,0.2
2023-03-02T19:38:44.988Z,0.1
2023-03-02T19:43:45.405Z,0.2
2023-03-02T19:48:45.332Z,0.2
2023-03-02T19:53:44.010Z,0.2
2023-03-02T19:58:43.318Z,0.2
2023-03-02T20:00:06.231Z,0.1
2023-03-02T20:05:06.327Z,0.2
2023-03-02T20:10:03.053Z,0.2
2023-03-02T20:15:03.800Z,0.2
2023-03-02T20:20:02.586Z,0.2
2023-03-02T20:25:02.882Z,0.2
2023-03-02T20:29:59.585Z,0.1
2023-03-02T20:34:59.474Z,0.2
2023-03-02T20:39:58.877Z,0.2
2023-03-02T20:44:58.589Z,0.2
2023-03-02T20:49:57.701Z,0.2
2023-03-02T20:54:57.104Z,0.2
2023-03-02T20:59:17.618Z,0.2
2023-03-02T21:04:17.179Z,0.2
2023-03-02T21:09:18.441Z,0.2
2023-03-02T21:14:14.709Z,0.2
2023-03-02T21:19:14.933Z,0.2
2023-03-02T21:24:14.078Z,0.2
2023-03-02T21:29:13.714Z,0.2
2023-03-02T21:34:14.150Z,0.1
2023-03-02T21:39:13.082Z,0.2
2023-03-02T21:44:13.193Z,0.2
2023-03-02T21:49:14.267Z,0.1
2023-03-02T21:54:10.573Z,0.1
2023-03-02T21:59:08.011Z,0.2
2023-03-02T22:04:06.771Z,0.2
2023-03-02T22:09:06.491Z,0.2
2023-03-02T22:14:03.889Z,0.2
2023-03-02T22:19:04.095Z,0.2
2023-03-02T22:24:03.904Z,0.2
2023-03-02T22:29:03.248Z,0.1
2023-03-02T22:34:02.729Z,0.2
2023-03-02T22:39:02.691Z,0.2
2023-03-02T22:44:02.362Z,0.2
2023-03-02T22:49:02.602Z,0.2
2023-03-02T22:54:03.308Z,0.2
2023-03-02T22:58:45.647Z,0.2
2023-03-02T23:03:45.829Z,0.2
2023-03-02T23:08:46.085Z,0.2
2023-03-02T23:13:45.187Z,0.1
2023-03-02T23:18:45.439Z,0.2
2023-03-02T23:23:44.200Z,0.2
2023-03-02T23:28:44.068Z,0.2
2023-03-02T23:33:45.015Z,0.2
2023-03-02T23:38:41.451Z,0.2
2023-03-02T23:43:42.336Z,0.2
2023-03-02T23:48:40.840Z,0.2
2023-03-02T23:53:40.903Z,0.2
2023-03-02T23:58:48.628Z,0.2
